createdAt,value
2018-04-14T00:00:19.643Z,0.00
2018-04-14T00:01:19.651Z,0.00
2018-04-14T00:02:19.660Z,0.00
2018-04-14T00:03:19.671Z,0.00
2018-04-14T00:04:19.678Z,0.00
2018-04-14T00:05:19.686Z,0.00
2018-04-14T00:06:19.694Z,0.00
2018-04-14T00:07:19.704Z,0.00
2018-04-14T00:08:19.710Z,0.00
2018-04-14T00:09:19.720Z,0.00
2018-04-14T00:10:19.726Z,0.00
2018-04-14T00:11:19.753Z,0.00
2018-04-14T00:12:19.745Z,0.00
2018-04-14T00:13:19.753Z,0.00
2018-04-14T00:14:19.760Z,0.00
2018-04-14T00:15:19.772Z,0.00
2018-04-14T00:16:19.778Z,0.00
2018-04-14T00:17:19.786Z,0.00
2018-04-14T00:18:19.796Z,0.00
2018-04-14T00:19:19.802Z,0.00
2018-04-14T00:20:19.811Z,0.00
2018-04-14T00:21:19.820Z,0.00
2018-04-14T00:22:19.830Z,0.00
2018-04-14T00:23:19.837Z,0.00
2018-04-14T00:24:19.850Z,0.00
2018-04-14T00:25:19.854Z,0.00
2018-04-14T00:26:19.861Z,0.00
2018-04-14T00:27:19.870Z,0.00
2018-04-14T00:28:19.878Z,0.00
2018-04-14T00:29:19.886Z,0.00
2018-04-14T00:30:19.893Z,0.00
2018-04-14T00:31:19.905Z,0.00
2018-04-14T00:32:19.912Z,0.00
2018-04-14T00:33:19.919Z,0.00
2018-04-14T00:34:19.929Z,0.00
2018-04-14T00:35:19.939Z,0.00
2018-04-14T00:36:19.992Z,0.00
2018-04-14T00:37:19.952Z,0.00
2018-04-14T00:38:19.960Z,0.00
2018-04-14T00:39:19.975Z,0.00
2018-04-14T00:40:19.979Z,0.00
2018-04-14T00:41:19.985Z,0.00
2018-04-14T00:42:19.993Z,0.00
2018-04-14T00:43:20.002Z,0.00
2018-04-14T00:44:20.009Z,0.00
2018-04-14T00:45:20.020Z,0.00
2018-04-14T00:46:20.027Z,0.00
2018-04-14T00:47:20.041Z,0.00
2018-04-14T00:48:20.043Z,0.00
2018-04-14T00:49:20.061Z,0.00
2018-04-14T00:50:20.068Z,0.00
2018-04-14T00:51:20.068Z,0.00
2018-04-14T00:52:20.075Z,0.00
2018-04-14T00:53:20.085Z,0.00
2018-04-14T00:54:20.096Z,0.00
2018-04-14T00:55:20.103Z,0.00
2018-04-14T00:56:20.109Z,0.00
2018-04-14T00:57:20.118Z,0.00
2018-04-14T00:58:20.125Z,0.00
2018-04-14T00:59:20.133Z,0.00
2018-04-14T01:00:20.144Z,0.00
2018-04-14T01:01:20.151Z,0.00
2018-04-14T01:02:20.157Z,0.00
2018-04-14T01:03:20.166Z,0.00
2018-04-14T01:04:20.175Z,0.00
2018-04-14T01:05:20.182Z,0.00
2018-04-14T01:06:20.190Z,0.00
2018-04-14T01:07:20.200Z,0.00
2018-04-14T01:08:20.208Z,0.00
2018-04-14T01:09:20.214Z,0.00
2018-04-14T01:10:20.221Z,0.00
2018-04-14T01:11:20.231Z,0.00
2018-04-14T01:12:20.238Z,0.00
2018-04-14T01:13:20.246Z,0.00
2018-04-14T01:14:20.255Z,0.00
2018-04-14T01:15:20.264Z,0.00
2018-04-14T01:16:20.271Z,0.00
2018-04-14T01:17:20.279Z,0.00
2018-04-14T01:18:20.291Z,0.00
2018-04-14T01:19:20.298Z,0.00
2018-04-14T01:20:20.305Z,0.00
2018-04-14T01:21:20.310Z,0.00
2018-04-14T01:22:20.319Z,0.00
2018-04-14T01:23:20.327Z,0.00
2018-04-14T01:24:20.334Z,0.00
2018-04-14T01:25:20.344Z,0.00
2018-04-14T01:26:20.351Z,0.00
2018-04-14T01:27:20.360Z,0.00
2018-04-14T01:28:20.366Z,0.00
2018-04-14T01:29:20.374Z,0.00
2018-04-14T01:30:20.380Z,0.00
2018-04-14T01:31:20.393Z,0.00
2018-04-14T01:32:20.402Z,0.00
2018-04-14T01:33:20.405Z,0.00
2018-04-14T01:34:20.414Z,0.00
2018-04-14T01:35:20.422Z,0.00
2018-04-14T01:36:20.426Z,0.00
2018-04-14T01:37:20.437Z,0.00
2018-04-14T01:38:20.443Z,0.00
2018-04-14T01:39:20.452Z,0.00
2018-04-14T01:40:20.459Z,0.00
2018-04-14T01:41:20.470Z,0.00
2018-04-14T01:42:20.475Z,0.00
2018-04-14T01:43:20.483Z,0.00
2018-04-14T01:44:20.489Z,0.00
2018-04-14T01:45:20.495Z,0.00
2018-04-14T01:46:20.509Z,0.00
2018-04-14T01:47:20.512Z,0.00
2018-04-14T01:48:20.519Z,0.00
2018-04-14T01:49:20.527Z,0.00
2018-04-14T01:50:20.537Z,0.00
2018-04-14T01:51:20.546Z,0.00
2018-04-14T01:52:20.551Z,0.00
2018-04-14T01:53:20.561Z,0.00
2018-04-14T01:54:20.567Z,0.00
2018-04-14T01:55:20.574Z,0.00
2018-04-14T01:56:20.580Z,0.00
2018-04-14T01:57:20.588Z,0.00
2018-04-14T01:58:20.596Z,0.00
2018-04-14T01:59:20.608Z,0.00
2018-04-14T02:00:20.609Z,0.00
2018-04-14T02:01:20.618Z,0.00
2018-04-14T02:02:20.627Z,0.00
2018-04-14T02:03:20.636Z,0.00
2018-04-14T02:04:20.645Z,0.00
2018-04-14T02:05:20.649Z,0.00
2018-04-14T02:06:20.658Z,0.00
2018-04-14T02:07:20.667Z,0.00
2018-04-14T02:08:20.673Z,0.00
2018-04-14T02:09:20.680Z,0.00
2018-04-14T02:10:20.690Z,0.00
2018-04-14T02:11:20.696Z,0.00
2018-04-14T02:12:20.703Z,0.00
2018-04-14T02:13:20.710Z,0.00
2018-04-14T02:14:20.719Z,0.00
2018-04-14T02:15:20.727Z,0.00
2018-04-14T02:16:20.737Z,0.00
2018-04-14T02:17:20.742Z,0.00
2018-04-14T02:18:20.755Z,0.00
2018-04-14T02:19:20.758Z,0.00
2018-04-14T02:20:20.764Z,0.00
2018-04-14T02:21:20.774Z,0.00
2018-04-14T02:22:20.782Z,0.00
2018-04-14T02:23:20.790Z,0.00
2018-04-14T02:24:20.797Z,0.00
2018-04-14T02:25:20.805Z,0.00
2018-04-14T02:26:20.811Z,0.00
2018-04-14T02:27:20.821Z,0.00
2018-04-14T02:28:20.825Z,0.00
2018-04-14T02:29:20.836Z,0.00
2018-04-14T02:30:20.843Z,0.00
2018-04-14T02:31:20.853Z,0.00
2018-04-14T02:32:20.860Z,0.00
2018-04-14T02:33:20.868Z,0.00
2018-04-14T02:34:20.875Z,0.00
2018-04-14T02:35:20.881Z,0.00
2018-04-14T02:36:20.889Z,0.00
2018-04-14T02:37:20.897Z,0.00
2018-04-14T02:38:20.905Z,0.00
2018-04-14T02:39:20.913Z,0.00
2018-04-14T02:40:20.922Z,0.00
2018-04-14T02:41:20.929Z,0.00
2018-04-14T02:42:20.935Z,0.00
2018-04-14T02:43:20.943Z,0.00
2018-04-14T02:44:20.951Z,0.00
2018-04-14T02:45:20.970Z,0.00
2018-04-14T02:46:20.966Z,0.00
2018-04-14T02:47:20.974Z,0.00
2018-04-14T02:48:20.981Z,0.00
2018-04-14T02:49:20.991Z,0.00
2018-04-14T02:50:20.997Z,0.00
2018-04-14T02:51:21.007Z,0.00
2018-04-14T02:52:21.092Z,0.00
2018-04-14T02:53:21.020Z,0.00
2018-04-14T02:54:21.030Z,0.00
2018-04-14T02:55:21.039Z,0.00
2018-04-14T02:56:21.044Z,0.00
2018-04-14T02:57:21.053Z,0.00
2018-04-14T02:58:21.062Z,0.00
2018-04-14T02:59:21.073Z,0.00
2018-04-14T03:00:21.077Z,0.00
2018-04-14T03:01:21.088Z,0.00
2018-04-14T03:02:21.094Z,0.00
2018-04-14T03:03:21.101Z,0.00
2018-04-14T03:04:21.110Z,0.00
2018-04-14T03:05:21.117Z,0.00
2018-04-14T03:06:21.126Z,0.00
2018-04-14T03:07:21.133Z,0.00
2018-04-14T03:08:21.142Z,0.00
2018-04-14T03:09:21.148Z,0.00
2018-04-14T03:10:21.190Z,0.00
2018-04-14T03:11:21.169Z,0.00
2018-04-14T03:12:21.171Z,0.00
2018-04-14T03:13:21.185Z,0.00
2018-04-14T03:14:21.191Z,0.00
2018-04-14T03:15:21.196Z,0.00
2018-04-14T03:16:21.202Z,0.00
2018-04-14T03:17:21.213Z,0.00
2018-04-14T03:18:21.220Z,0.00
2018-04-14T03:19:21.228Z,0.00
2018-04-14T03:20:21.236Z,0.00
2018-04-14T03:21:21.242Z,0.00
2018-04-14T03:22:21.251Z,0.00
2018-04-14T03:23:21.259Z,0.00
2018-04-14T03:24:21.266Z,0.00
2018-04-14T03:25:21.283Z,0.00
2018-04-14T03:26:21.283Z,0.00
2018-04-14T03:27:21.291Z,0.00
2018-04-14T03:28:21.297Z,0.00
2018-04-14T03:29:21.305Z,0.00
2018-04-14T03:30:21.314Z,0.00
2018-04-14T03:31:21.323Z,0.00
2018-04-14T03:32:21.328Z,0.00
2018-04-14T03:33:21.336Z,0.00
2018-04-14T03:34:21.345Z,0.00
2018-04-14T03:35:21.354Z,0.00
2018-04-14T03:36:21.363Z,0.00
2018-04-14T03:37:21.371Z,0.00
2018-04-14T03:38:21.375Z,0.00
2018-04-14T03:39:21.388Z,0.00
2018-04-14T03:40:21.389Z,0.00
2018-04-14T03:41:21.398Z,0.00
2018-04-14T03:42:21.406Z,0.00
2018-04-14T03:43:21.412Z,0.00
2018-04-14T03:44:21.421Z,0.00
2018-04-14T03:45:21.428Z,0.00
2018-04-14T03:46:21.441Z,0.00
2018-04-14T03:47:21.449Z,0.00
2018-04-14T03:48:21.451Z,0.00
2018-04-14T03:49:21.459Z,0.00
2018-04-14T03:50:21.468Z,0.00
2018-04-14T03:51:21.482Z,0.00
2018-04-14T03:52:21.482Z,0.00
2018-04-14T03:53:21.495Z,0.00
2018-04-14T03:54:21.498Z,0.00
2018-04-14T03:55:21.505Z,0.00
2018-04-14T03:56:21.513Z,0.00
2018-04-14T03:57:21.518Z,0.00
2018-04-14T03:58:21.528Z,0.00
2018-04-14T03:59:21.536Z,0.00
2018-04-14T04:00:21.542Z,0.00
2018-04-14T04:01:21.550Z,0.00
2018-04-14T04:02:21.559Z,0.00
2018-04-14T04:03:21.564Z,0.00
2018-04-14T04:04:21.575Z,0.00
2018-04-14T04:05:21.580Z,0.00
2018-04-14T04:06:21.590Z,0.00
2018-04-14T04:07:21.597Z,0.00
2018-04-14T04:08:21.614Z,0.00
2018-04-14T04:09:21.609Z,0.00
2018-04-14T04:10:21.618Z,0.00
2018-04-14T04:11:21.625Z,0.00
2018-04-14T04:12:21.632Z,0.00
2018-04-14T04:13:21.640Z,0.00
2018-04-14T04:14:21.649Z,0.00
2018-04-14T04:15:21.656Z,0.00
2018-04-14T04:16:21.663Z,0.00
2018-04-14T04:17:21.670Z,0.00
2018-04-14T04:18:21.678Z,0.00
2018-04-14T04:19:21.686Z,0.00
2018-04-14T04:20:21.694Z,0.00
2018-04-14T04:21:21.699Z,0.00
2018-04-14T04:22:21.708Z,0.00
2018-04-14T04:23:21.716Z,0.00
2018-04-14T04:24:21.722Z,0.00
2018-04-14T04:25:21.732Z,0.00
2018-04-14T04:26:21.743Z,0.00
2018-04-14T04:27:21.746Z,0.00
2018-04-14T04:28:21.754Z,0.00
2018-04-14T04:29:21.760Z,0.00
2018-04-14T04:30:21.768Z,0.00
2018-04-14T04:31:21.777Z,0.00
2018-04-14T04:32:21.784Z,0.00
2018-04-14T04:33:21.790Z,0.00
2018-04-14T04:34:21.799Z,0.00
2018-04-14T04:35:21.808Z,0.00
2018-04-14T04:36:21.815Z,0.00
2018-04-14T04:37:21.821Z,0.00
2018-04-14T04:38:21.828Z,0.00
2018-04-14T04:39:21.839Z,0.00
2018-04-14T04:40:21.845Z,0.00
2018-04-14T04:41:21.852Z,0.00
2018-04-14T04:42:21.862Z,0.00
2018-04-14T04:43:21.870Z,0.00
2018-04-14T04:44:21.876Z,0.00
2018-04-14T04:45:21.884Z,0.00
2018-04-14T04:46:21.892Z,0.00
2018-04-14T04:47:21.898Z,0.00
2018-04-14T04:48:21.910Z,0.00
2018-04-14T04:49:21.915Z,0.00
2018-04-14T04:50:21.922Z,0.00
2018-04-14T04:51:21.930Z,0.00
2018-04-14T04:52:21.937Z,0.00
2018-04-14T04:53:21.946Z,0.00
2018-04-14T04:54:21.953Z,0.00
2018-04-14T04:55:21.962Z,0.00
2018-04-14T04:56:21.968Z,0.00
2018-04-14T04:57:21.975Z,0.00
2018-04-14T04:58:21.985Z,0.00
2018-04-14T04:59:21.993Z,0.00
2018-04-14T05:00:21.998Z,0.00
2018-04-14T05:01:22.008Z,0.00
2018-04-14T05:02:22.013Z,0.00
2018-04-14T05:03:22.024Z,0.00
2018-04-14T05:04:22.032Z,0.00
2018-04-14T05:05:22.037Z,0.00
2018-04-14T05:06:22.046Z,0.00
2018-04-14T05:07:22.054Z,0.00
2018-04-14T05:08:22.064Z,0.00
2018-04-14T05:09:22.068Z,0.00
2018-04-14T05:10:22.079Z,0.00
2018-04-14T05:11:22.087Z,0.00
2018-04-14T05:12:22.094Z,0.00
2018-04-14T05:13:22.140Z,0.00
2018-04-14T05:14:22.111Z,0.00
2018-04-14T05:15:22.117Z,0.00
2018-04-14T05:16:22.125Z,0.00
2018-04-14T05:17:22.133Z,0.00
2018-04-14T05:18:22.140Z,0.00
2018-04-14T05:19:22.149Z,0.00
2018-04-14T05:20:22.155Z,0.00
2018-04-14T05:21:22.164Z,0.00
2018-04-14T05:22:22.169Z,0.00
2018-04-14T05:23:22.181Z,0.00
2018-04-14T05:24:22.187Z,0.00
2018-04-14T05:25:22.194Z,0.00
2018-04-14T05:26:22.203Z,0.00
2018-04-14T05:27:22.212Z,0.00
2018-04-14T05:28:22.219Z,0.00
2018-04-14T05:29:22.227Z,0.00
2018-04-14T05:30:22.235Z,0.00
2018-04-14T05:31:22.245Z,0.00
2018-04-14T05:32:22.257Z,5.63
2018-04-14T05:33:22.258Z,5.63
2018-04-14T05:34:22.266Z,5.63
2018-04-14T05:35:22.275Z,5.63
2018-04-14T05:36:22.281Z,5.63
2018-04-14T05:37:22.289Z,5.63
2018-04-14T05:38:22.300Z,5.63
2018-04-14T05:39:22.308Z,5.63
2018-04-14T05:40:22.313Z,5.63
2018-04-14T05:41:22.325Z,5.63
2018-04-14T05:42:22.329Z,5.63
2018-04-14T05:43:22.337Z,5.63
2018-04-14T05:44:22.343Z,5.63
2018-04-14T05:45:22.354Z,5.63
2018-04-14T05:46:22.366Z,5.63
2018-04-14T05:47:22.369Z,5.63
2018-04-14T05:48:22.378Z,5.63
2018-04-14T05:49:22.385Z,5.63
2018-04-14T05:50:22.394Z,5.63
2018-04-14T05:51:22.403Z,5.63
2018-04-14T05:52:22.413Z,5.63
2018-04-14T05:53:22.417Z,5.63
2018-04-14T05:54:22.427Z,5.63
2018-04-14T05:55:22.435Z,5.63
2018-04-14T05:56:22.442Z,5.63
2018-04-14T05:57:22.450Z,5.63
2018-04-14T05:58:22.459Z,5.63
2018-04-14T05:59:22.467Z,5.63
2018-04-14T06:00:22.479Z,5.63
2018-04-14T06:01:22.480Z,5.63
2018-04-14T06:02:22.490Z,5.63
2018-04-14T06:03:22.502Z,5.63
2018-04-14T06:04:22.510Z,5.63
2018-04-14T06:05:22.515Z,5.63
2018-04-14T06:06:22.520Z,5.63
2018-04-14T06:07:22.531Z,5.63
2018-04-14T06:08:22.538Z,5.63
2018-04-14T06:09:22.546Z,5.63
2018-04-14T06:10:22.563Z,5.63
2018-04-14T06:11:22.563Z,5.63
2018-04-14T06:12:22.572Z,11.25
2018-04-14T06:13:22.580Z,11.25
2018-04-14T06:14:22.588Z,11.25
2018-04-14T06:15:22.595Z,11.25
2018-04-14T06:16:22.604Z,11.25
2018-04-14T06:17:22.616Z,11.25
2018-04-14T06:18:22.622Z,11.25
2018-04-14T06:19:22.629Z,11.25
2018-04-14T06:20:22.639Z,11.25
2018-04-14T06:21:22.646Z,11.25
2018-04-14T06:22:22.692Z,11.25
2018-04-14T06:23:22.664Z,11.25
2018-04-14T06:24:22.672Z,11.25
2018-04-14T06:25:22.680Z,11.25
2018-04-14T06:26:22.694Z,11.25
2018-04-14T06:27:22.697Z,11.25
2018-04-14T06:28:22.706Z,11.25
2018-04-14T06:29:22.714Z,11.25
2018-04-14T06:30:22.723Z,11.25
2018-04-14T06:31:22.730Z,11.25
2018-04-14T06:32:22.738Z,11.25
2018-04-14T06:33:22.747Z,11.25
2018-04-14T06:34:22.754Z,11.25
2018-04-14T06:35:22.763Z,11.25
2018-04-14T06:36:22.772Z,11.25
2018-04-14T06:37:22.781Z,11.25
2018-04-14T06:38:22.788Z,11.25
2018-04-14T06:39:22.798Z,11.25
2018-04-14T06:40:22.805Z,11.25
2018-04-14T06:41:22.813Z,11.25
2018-04-14T06:42:22.822Z,11.25
2018-04-14T06:43:22.829Z,11.25
2018-04-14T06:44:22.836Z,11.25
2018-04-14T06:45:22.848Z,11.25
2018-04-14T06:46:22.858Z,11.25
2018-04-14T06:47:22.862Z,11.25
2018-04-14T06:48:22.874Z,11.25
2018-04-14T06:49:22.879Z,11.25
2018-04-14T06:50:22.886Z,11.25
2018-04-14T06:51:22.895Z,11.25
2018-04-14T06:52:22.903Z,11.25
2018-04-14T06:53:22.911Z,11.25
2018-04-14T06:54:22.921Z,11.25
2018-04-14T06:55:22.929Z,11.25
2018-04-14T06:56:22.937Z,11.25
2018-04-14T06:57:22.945Z,11.25
2018-04-14T06:58:22.959Z,11.25
2018-04-14T06:59:22.963Z,11.25
2018-04-14T07:00:22.976Z,11.25
2018-04-14T07:01:23.229Z,11.25
2018-04-14T07:02:22.987Z,11.25
2018-04-14T07:03:23.001Z,11.25
2018-04-14T07:04:23.050Z,11.25
2018-04-14T07:05:23.012Z,11.25
2018-04-14T07:06:23.024Z,11.25
2018-04-14T07:07:23.029Z,11.25
2018-04-14T07:08:23.040Z,11.25
2018-04-14T07:09:23.047Z,11.25
2018-04-14T07:10:23.058Z,11.25
2018-04-14T07:11:23.063Z,11.25
2018-04-14T07:12:23.075Z,11.25
2018-04-14T07:13:23.084Z,11.25
2018-04-14T07:14:23.089Z,11.25
2018-04-14T07:15:23.097Z,11.25
2018-04-14T07:16:23.105Z,11.25
2018-04-14T07:17:23.112Z,11.25
2018-04-14T07:18:23.123Z,11.25
2018-04-14T07:19:23.134Z,11.25
2018-04-14T07:20:23.146Z,11.25
2018-04-14T07:21:23.148Z,11.25
2018-04-14T07:22:23.155Z,11.25
2018-04-14T07:23:23.167Z,11.25
2018-04-14T07:24:23.171Z,11.25
2018-04-14T07:25:23.182Z,11.25
2018-04-14T07:26:23.191Z,11.25
2018-04-14T07:27:23.200Z,11.25
2018-04-14T07:28:23.208Z,11.25
2018-04-14T07:29:23.223Z,11.25
2018-04-14T07:30:23.227Z,11.25
2018-04-14T07:31:23.235Z,11.25
2018-04-14T07:32:23.309Z,11.25
2018-04-14T07:33:23.252Z,11.25
2018-04-14T07:34:23.260Z,11.25
2018-04-14T07:35:23.272Z,11.25
2018-04-14T07:36:23.277Z,11.25
2018-04-14T07:37:23.286Z,11.25
2018-04-14T07:38:23.300Z,11.25
2018-04-14T07:39:23.304Z,11.25
2018-04-14T07:40:23.314Z,16.88
2018-04-14T07:41:23.321Z,16.88
2018-04-14T07:42:23.333Z,16.88
2018-04-14T07:43:23.341Z,11.25
2018-04-14T07:44:23.348Z,11.25
2018-04-14T07:45:23.357Z,16.88
2018-04-14T07:46:23.367Z,16.88
2018-04-14T07:47:23.375Z,11.25
2018-04-14T07:48:23.385Z,16.88
2018-04-14T07:49:23.392Z,16.88
2018-04-14T07:50:23.401Z,16.88
2018-04-14T07:51:23.410Z,16.88
2018-04-14T07:52:23.419Z,16.88
2018-04-14T07:53:23.429Z,16.88
2018-04-14T07:54:23.443Z,16.88
2018-04-14T07:55:23.448Z,16.88
2018-04-14T07:56:23.456Z,16.88
2018-04-14T07:57:23.464Z,16.88
2018-04-14T07:58:23.474Z,16.88
2018-04-14T07:59:23.482Z,16.88
2018-04-14T08:00:23.491Z,16.88
2018-04-14T08:01:23.500Z,16.88
2018-04-14T08:02:23.509Z,16.88
2018-04-14T08:03:23.519Z,16.88
2018-04-14T08:04:23.527Z,16.88
2018-04-14T08:05:23.540Z,16.88
2018-04-14T08:06:23.545Z,16.88
2018-04-14T08:07:23.553Z,16.88
2018-04-14T08:08:23.562Z,16.88
2018-04-14T08:09:23.572Z,16.88
2018-04-14T08:10:23.581Z,22.50
2018-04-14T08:11:23.593Z,22.50
2018-04-14T08:12:23.600Z,22.50
2018-04-14T08:13:23.614Z,22.50
2018-04-14T08:14:23.619Z,22.50
2018-04-14T08:15:23.627Z,22.50
2018-04-14T08:16:23.640Z,22.50
2018-04-14T08:17:23.644Z,22.50
2018-04-14T08:18:23.702Z,22.50
2018-04-14T08:19:23.665Z,22.50
2018-04-14T08:20:23.673Z,22.50
2018-04-14T08:21:23.681Z,22.50
2018-04-14T08:22:23.695Z,22.50
2018-04-14T08:23:23.700Z,22.50
2018-04-14T08:24:23.710Z,22.50
2018-04-14T08:25:23.719Z,22.50
2018-04-14T08:26:23.734Z,28.13
2018-04-14T08:27:23.737Z,28.13
2018-04-14T08:28:23.744Z,28.13
2018-04-14T08:29:23.755Z,28.13
2018-04-14T08:30:23.766Z,28.13
2018-04-14T08:31:23.775Z,28.13
2018-04-14T08:32:23.783Z,28.13
2018-04-14T08:33:23.794Z,28.13
2018-04-14T08:34:23.803Z,28.13
2018-04-14T08:35:23.809Z,28.13
2018-04-14T08:36:23.820Z,28.13
2018-04-14T08:37:23.865Z,28.13
2018-04-14T08:38:23.842Z,28.13
2018-04-14T08:39:23.851Z,28.13
2018-04-14T08:40:23.859Z,28.13
2018-04-14T08:41:23.868Z,28.13
2018-04-14T08:42:23.879Z,28.13
2018-04-14T08:43:23.890Z,28.13
2018-04-14T08:44:23.898Z,28.13
2018-04-14T08:45:23.908Z,28.13
2018-04-14T08:46:23.919Z,28.13
2018-04-14T08:47:23.930Z,28.13
2018-04-14T08:48:23.940Z,28.13
2018-04-14T08:49:23.946Z,28.13
2018-04-14T08:50:23.956Z,28.13
2018-04-14T08:51:23.966Z,28.13
2018-04-14T08:52:23.974Z,28.13
2018-04-14T08:53:23.985Z,28.13
2018-04-14T08:54:23.995Z,28.13
2018-04-14T08:55:24.005Z,28.13
2018-04-14T08:56:24.036Z,28.13
2018-04-14T08:57:24.028Z,28.13
2018-04-14T08:58:24.036Z,28.13
2018-04-14T08:59:24.045Z,28.13
2018-04-14T09:00:24.056Z,28.13
2018-04-14T09:01:24.064Z,28.13
2018-04-14T09:02:24.073Z,28.13
2018-04-14T09:03:24.084Z,28.13
2018-04-14T09:04:24.094Z,28.13
2018-04-14T09:05:24.108Z,28.13
2018-04-14T09:06:24.114Z,28.13
2018-04-14T09:07:24.131Z,28.13
2018-04-14T09:08:24.136Z,28.13
2018-04-14T09:09:24.146Z,33.75
2018-04-14T09:10:24.155Z,28.13
2018-04-14T09:11:24.166Z,28.13
2018-04-14T09:12:24.176Z,33.75
2018-04-14T09:13:24.185Z,33.75
2018-04-14T09:14:24.197Z,33.75
2018-04-14T09:15:24.208Z,33.75
2018-04-14T09:16:24.217Z,33.75
2018-04-14T09:17:24.228Z,39.38
2018-04-14T09:18:24.235Z,33.75
2018-04-14T09:19:24.247Z,33.75
2018-04-14T09:20:24.256Z,33.75
2018-04-14T09:21:24.271Z,33.75
2018-04-14T09:22:24.278Z,39.38
2018-04-14T09:23:24.290Z,33.75
2018-04-14T09:24:24.297Z,33.75
2018-04-14T09:25:24.310Z,33.75
2018-04-14T09:26:24.353Z,39.38
2018-04-14T09:27:24.332Z,39.38
2018-04-14T09:28:24.340Z,39.38
2018-04-14T09:29:24.351Z,39.38
2018-04-14T09:30:24.361Z,39.38
2018-04-14T09:31:24.374Z,39.38
2018-04-14T09:32:24.383Z,39.38
2018-04-14T09:33:24.393Z,39.38
2018-04-14T09:34:24.405Z,39.38
2018-04-14T09:35:24.416Z,39.38
2018-04-14T09:36:24.428Z,39.38
2018-04-14T09:37:24.438Z,45.00
2018-04-14T09:38:24.449Z,45.00
2018-04-14T09:39:24.461Z,45.00
2018-04-14T09:40:24.472Z,45.00
2018-04-14T09:41:24.483Z,45.00
2018-04-14T09:42:24.500Z,45.00
2018-04-14T09:43:24.509Z,45.00
2018-04-14T09:44:24.522Z,45.00
2018-04-14T09:45:24.528Z,45.00
2018-04-14T09:46:24.541Z,45.00
2018-04-14T09:47:24.554Z,50.63
2018-04-14T09:48:24.568Z,50.63
2018-04-14T09:49:24.576Z,50.63
2018-04-14T09:50:24.589Z,50.63
2018-04-14T09:51:24.598Z,50.63
2018-04-14T09:52:24.611Z,50.63
2018-04-14T09:53:24.623Z,50.63
2018-04-14T09:54:24.634Z,50.63
2018-04-14T09:55:24.649Z,50.63
2018-04-14T09:56:24.694Z,56.25
2018-04-14T09:57:24.669Z,50.63
2018-04-14T09:58:24.684Z,50.63
2018-04-14T09:59:24.696Z,50.63
2018-04-14T10:00:24.722Z,50.63
2018-04-14T10:01:24.720Z,50.63
2018-04-14T10:02:24.732Z,50.63
2018-04-14T10:03:24.743Z,50.63
2018-04-14T10:04:24.758Z,50.63
2018-04-14T10:05:24.770Z,50.63
2018-04-14T10:06:24.784Z,50.63
2018-04-14T10:07:24.796Z,56.25
2018-04-14T10:08:24.808Z,56.25
2018-04-14T10:09:24.820Z,56.25
2018-04-14T10:10:24.877Z,56.25
2018-04-14T10:11:24.845Z,56.25
2018-04-14T10:12:24.862Z,56.25
2018-04-14T10:13:24.873Z,56.25
2018-04-14T10:14:24.882Z,56.25
2018-04-14T10:15:24.894Z,56.25
2018-04-14T10:16:24.909Z,56.25
2018-04-14T10:17:24.918Z,56.25
2018-04-14T10:18:24.936Z,61.88
2018-04-14T10:19:24.946Z,61.88
2018-04-14T10:20:24.960Z,56.25
2018-04-14T10:21:24.973Z,39.38
2018-04-14T10:22:24.983Z,61.88
2018-04-14T10:23:24.996Z,61.88
2018-04-14T10:24:25.008Z,61.88
2018-04-14T10:25:25.021Z,61.88
2018-04-14T10:26:25.035Z,61.88
2018-04-14T10:27:25.052Z,67.50
2018-04-14T10:28:25.058Z,67.50
2018-04-14T10:29:25.072Z,67.50
2018-04-14T10:30:25.088Z,28.13
2018-04-14T10:31:25.099Z,67.50
2018-04-14T10:32:25.183Z,67.50
2018-04-14T10:33:25.131Z,67.50
2018-04-14T10:34:25.139Z,67.50
2018-04-14T10:35:25.154Z,73.13
2018-04-14T10:36:25.164Z,67.50
2018-04-14T10:37:25.177Z,78.75
2018-04-14T10:38:25.190Z,39.38
2018-04-14T10:39:25.204Z,67.50
2018-04-14T10:40:25.214Z,78.75
2018-04-14T10:41:25.230Z,78.75
2018-04-14T10:42:25.243Z,78.75
2018-04-14T10:43:25.255Z,61.88
2018-04-14T10:44:25.271Z,50.63
2018-04-14T10:45:25.285Z,73.13
2018-04-14T10:46:25.296Z,78.75
2018-04-14T10:47:25.312Z,73.13
2018-04-14T10:48:25.322Z,56.25
2018-04-14T10:49:25.335Z,45.00
2018-04-14T10:50:25.348Z,39.38
2018-04-14T10:51:25.362Z,50.63
2018-04-14T10:52:25.375Z,73.13
2018-04-14T10:53:25.388Z,67.50
2018-04-14T10:54:25.401Z,50.63
2018-04-14T10:55:25.419Z,39.38
2018-04-14T10:56:25.432Z,39.38
2018-04-14T10:57:25.441Z,50.63
2018-04-14T10:58:25.453Z,50.63
2018-04-14T10:59:25.472Z,45.00
2018-04-14T11:00:25.478Z,50.63
2018-04-14T11:01:25.492Z,39.38
2018-04-14T11:02:25.506Z,39.38
2018-04-14T11:03:25.517Z,39.38
2018-04-14T11:04:25.536Z,39.38
2018-04-14T11:05:25.544Z,39.38
2018-04-14T11:06:25.557Z,39.38
2018-04-14T11:07:25.569Z,50.63
2018-04-14T11:08:25.583Z,50.63
2018-04-14T11:09:25.594Z,61.88
2018-04-14T11:10:25.607Z,67.50
2018-04-14T11:11:25.623Z,67.50
2018-04-14T11:12:25.632Z,73.13
2018-04-14T11:13:25.647Z,61.88
2018-04-14T11:14:25.664Z,50.63
2018-04-14T11:15:25.673Z,56.25
2018-04-14T11:16:25.687Z,50.63
2018-04-14T11:17:25.699Z,73.13
2018-04-14T11:18:25.712Z,61.88
2018-04-14T11:19:25.725Z,67.50
2018-04-14T11:20:25.739Z,56.25
2018-04-14T11:21:25.753Z,56.25
2018-04-14T11:22:25.764Z,56.25
2018-04-14T11:23:25.779Z,50.63
2018-04-14T11:24:25.792Z,61.88
2018-04-14T11:25:25.804Z,61.88
2018-04-14T11:26:25.819Z,56.25
2018-04-14T11:27:25.831Z,50.63
2018-04-14T11:28:25.845Z,50.63
2018-04-14T11:29:25.858Z,56.25
2018-04-14T11:30:25.871Z,61.88
2018-04-14T11:31:25.908Z,67.50
2018-04-14T11:32:25.898Z,50.63
2018-04-14T11:33:25.911Z,45.00
2018-04-14T11:34:25.924Z,45.00
2018-04-14T11:35:25.938Z,45.00
2018-04-14T11:36:25.952Z,39.38
2018-04-14T11:37:25.964Z,39.38
2018-04-14T11:38:25.977Z,39.38
2018-04-14T11:39:25.991Z,33.75
2018-04-14T11:40:26.005Z,33.75
2018-04-14T11:41:26.017Z,33.75
2018-04-14T11:42:26.035Z,33.75
2018-04-14T11:43:26.058Z,33.75
2018-04-14T11:44:26.056Z,33.75
2018-04-14T11:45:26.070Z,39.38
2018-04-14T11:46:26.085Z,33.75
2018-04-14T11:47:26.098Z,33.75
2018-04-14T11:48:26.113Z,39.38
2018-04-14T11:49:26.125Z,39.38
2018-04-14T11:50:26.138Z,50.63
2018-04-14T11:51:26.153Z,50.63
2018-04-14T11:52:26.163Z,50.63
2018-04-14T11:53:26.178Z,50.63
2018-04-14T11:54:26.190Z,50.63
2018-04-14T11:55:26.203Z,56.25
2018-04-14T11:56:26.217Z,78.75
2018-04-14T11:57:26.231Z,67.50
2018-04-14T11:58:26.245Z,50.63
2018-04-14T11:59:26.258Z,50.63
2018-04-14T12:00:26.272Z,73.13
2018-04-14T12:01:26.282Z,67.50
2018-04-14T12:02:26.384Z,61.88
2018-04-14T12:03:26.329Z,56.25
2018-04-14T12:04:26.324Z,56.25
2018-04-14T12:05:26.339Z,56.25
2018-04-14T12:06:26.349Z,56.25
2018-04-14T12:07:26.364Z,56.25
2018-04-14T12:08:26.374Z,56.25
2018-04-14T12:09:26.388Z,56.25
2018-04-14T12:10:26.404Z,61.88
2018-04-14T12:11:26.425Z,56.25
2018-04-14T12:12:26.432Z,61.88
2018-04-14T12:13:26.451Z,61.88
2018-04-14T12:14:26.459Z,73.13
2018-04-14T12:15:26.469Z,78.75
2018-04-14T12:16:26.482Z,73.13
2018-04-14T12:17:26.504Z,67.50
2018-04-14T12:18:26.510Z,61.88
2018-04-14T12:19:26.526Z,67.50
2018-04-14T12:20:26.537Z,61.88
2018-04-14T12:21:26.553Z,67.50
2018-04-14T12:22:26.566Z,56.25
2018-04-14T12:23:26.578Z,73.13
2018-04-14T12:24:26.590Z,61.88
2018-04-14T12:25:26.606Z,84.38
2018-04-14T12:26:26.619Z,90.00
2018-04-14T12:27:26.637Z,90.00
2018-04-14T12:28:26.671Z,78.75
2018-04-14T12:29:26.661Z,95.63
2018-04-14T12:30:26.676Z,90.00
2018-04-14T12:31:26.694Z,90.00
2018-04-14T12:32:26.706Z,78.75
2018-04-14T12:33:26.724Z,61.88
2018-04-14T12:34:26.742Z,61.88
2018-04-14T12:35:26.750Z,61.88
2018-04-14T12:36:26.762Z,67.50
2018-04-14T12:37:26.778Z,56.25
2018-04-14T12:38:26.792Z,45.00
2018-04-14T12:39:26.808Z,50.63
2018-04-14T12:40:26.821Z,61.88
2018-04-14T12:41:26.838Z,78.75
2018-04-14T12:42:26.853Z,78.75
2018-04-14T12:43:26.866Z,73.13
2018-04-14T12:44:26.879Z,84.38
2018-04-14T12:45:26.897Z,78.75
2018-04-14T12:46:26.911Z,84.38
2018-04-14T12:47:26.928Z,78.75
2018-04-14T12:48:26.940Z,73.13
2018-04-14T12:49:26.956Z,61.88
2018-04-14T12:50:26.974Z,61.88
2018-04-14T12:51:26.987Z,67.50
2018-04-14T12:52:27.002Z,50.63
2018-04-14T12:53:27.018Z,50.63
2018-04-14T12:54:27.033Z,67.50
2018-04-14T12:55:27.051Z,61.88
2018-04-14T12:56:27.062Z,56.25
2018-04-14T12:57:27.079Z,56.25
2018-04-14T12:58:27.095Z,50.63
2018-04-14T12:59:27.111Z,50.63
2018-04-14T13:00:27.126Z,67.50
2018-04-14T13:01:27.144Z,56.25
2018-04-14T13:02:27.156Z,56.25
2018-04-14T13:03:27.171Z,50.63
2018-04-14T13:04:27.186Z,56.25